Terminal Aerodrome Forecast
Issued by NWS Jackson, MS

Home | Current Version | Previous Version | Text Only | Print | Product List | Glossary On
Versions: 1 2 3 4 5 6 7 8 9 10 11 12
433
FTUS44 KJAN 240602 RRA
TAFMEI
TAF
KMEI 240602Z 2406/2506 22004KT P6SM SCT025 OVC040
     FM240800 25003KT P6SM SCT007 OVC015
     FM241600 31010KT P6SM SCT015 BKN025
     FM250000 32007KT P6SM SCT025 BKN040=

USA.gov is the U.S. government's official web portal to all federal, state and local government web resources and services.